sensor_id;sensor_type;location;lat;lon;timestamp;P1;durP1;ratioP1;P2;durP2;ratioP2
65567;SDS011;52211;50.154;8.682;2023-02-21T00:00:37;7.63;;;6.43;;
65567;SDS011;52211;50.154;8.682;2023-02-21T00:03:23;10.23;;;7.23;;
65567;SDS011;52211;50.154;8.682;2023-02-21T00:06:08;12.03;;;7.50;;
65567;SDS011;52211;50.154;8.682;2023-02-21T00:08:56;10.50;;;6.57;;
65567;SDS011;52211;50.154;8.682;2023-02-21T00:11:43;10.80;;;7.03;;
65567;SDS011;52211;50.154;8.682;2023-02-21T00:14:29;9.77;;;7.10;;
65567;SDS011;52211;50.154;8.682;2023-02-21T00:17:17;10.73;;;7.50;;
65567;SDS011;52211;50.154;8.682;2023-02-21T00:20:03;12.70;;;7.50;;
65567;SDS011;52211;50.154;8.682;2023-02-21T00:22:49;8.67;;;6.63;;
65567;SDS011;52211;50.154;8.682;2023-02-21T00:25:35;13.07;;;8.27;;
65567;SDS011;52211;50.154;8.682;2023-02-21T00:28:20;12.10;;;7.30;;
65567;SDS011;52211;50.154;8.682;2023-02-21T00:31:08;12.10;;;7.40;;
65567;SDS011;52211;50.154;8.682;2023-02-21T00:34:01;9.17;;;7.30;;
65567;SDS011;52211;50.154;8.682;2023-02-21T00:36:46;9.47;;;6.80;;
65567;SDS011;52211;50.154;8.682;2023-02-21T00:39:31;15.37;;;8.53;;
65567;SDS011;52211;50.154;8.682;2023-02-21T00:42:17;10.17;;;6.93;;
65567;SDS011;52211;50.154;8.682;2023-02-21T00:45:02;11.33;;;7.13;;
65567;SDS011;52211;50.154;8.682;2023-02-21T00:47:48;11.77;;;7.63;;
65567;SDS011;52211;50.154;8.682;2023-02-21T00:50:33;10.30;;;7.73;;
65567;SDS011;52211;50.154;8.682;2023-02-21T00:53:21;15.73;;;10.10;;
65567;SDS011;52211;50.154;8.682;2023-02-21T00:56:08;16.63;;;9.60;;
65567;SDS011;52211;50.154;8.682;2023-02-21T00:58:56;11.43;;;7.70;;
65567;SDS011;52211;50.154;8.682;2023-02-21T01:01:42;11.30;;;7.87;;
65567;SDS011;52211;50.154;8.682;2023-02-21T01:04:28;9.57;;;7.23;;
65567;SDS011;52211;50.154;8.682;2023-02-21T01:07:13;10.13;;;6.77;;
65567;SDS011;52211;50.154;8.682;2023-02-21T01:09:59;10.17;;;7.33;;
65567;SDS011;52211;50.154;8.682;2023-02-21T01:12:49;7.60;;;6.70;;
65567;SDS011;52211;50.154;8.682;2023-02-21T01:15:43;9.60;;;6.33;;
65567;SDS011;52211;50.154;8.682;2023-02-21T01:18:29;8.17;;;6.07;;
65567;SDS011;52211;50.154;8.682;2023-02-21T01:21:15;8.67;;;5.33;;
65567;SDS011;52211;50.154;8.682;2023-02-21T01:24:04;7.57;;;5.90;;
65567;SDS011;52211;50.154;8.682;2023-02-21T01:26:56;7.13;;;5.17;;
65567;SDS011;52211;50.154;8.682;2023-02-21T01:29:47;5.83;;;5.07;;
65567;SDS011;52211;50.154;8.682;2023-02-21T01:32:35;5.50;;;4.97;;
65567;SDS011;52211;50.154;8.682;2023-02-21T01:35:22;7.90;;;5.23;;
65567;SDS011;52211;50.154;8.682;2023-02-21T01:38:10;7.17;;;5.10;;
65567;SDS011;52211;50.154;8.682;2023-02-21T01:41:00;7.13;;;5.23;;
65567;SDS011;52211;50.154;8.682;2023-02-21T01:44:27;10.27;;;5.40;;
65567;SDS011;52211;50.154;8.682;2023-02-21T01:47:12;8.23;;;5.40;;
65567;SDS011;52211;50.154;8.682;2023-02-21T01:50:00;6.60;;;4.43;;
65567;SDS011;52211;50.154;8.682;2023-02-21T01:52:50;4.63;;;4.10;;
65567;SDS011;52211;50.154;8.682;2023-02-21T01:55:37;5.03;;;4.03;;
65567;SDS011;52211;50.154;8.682;2023-02-21T01:58:27;10.00;;;5.43;;
65567;SDS011;52211;50.154;8.682;2023-02-21T02:01:24;8.80;;;4.10;;
65567;SDS011;52211;50.154;8.682;2023-02-21T02:04:42;7.33;;;4.17;;
65567;SDS011;52211;50.154;8.682;2023-02-21T02:07:31;7.47;;;4.40;;
65567;SDS011;52211;50.154;8.682;2023-02-21T02:10:19;5.13;;;4.00;;
65567;SDS011;52211;50.154;8.682;2023-02-21T02:37:51;6.07;;;4.10;;
65567;SDS011;52211;50.154;8.682;2023-02-21T02:40:46;6.47;;;3.77;;
65567;SDS011;52211;50.154;8.682;2023-02-21T02:46:09;5.37;;;4.10;;
65567;SDS011;52211;50.154;8.682;2023-02-21T02:48:56;6.43;;;4.03;;
65567;SDS011;52211;50.154;8.682;2023-02-21T02:51:36;5.93;;;3.83;;
65567;SDS011;52211;50.154;8.682;2023-02-21T02:54:08;8.10;;;4.50;;
65567;SDS011;52211;50.154;8.682;2023-02-21T02:56:37;4.47;;;3.83;;
65567;SDS011;52211;50.154;8.682;2023-02-21T02:59:18;6.17;;;4.50;;
65567;SDS011;52211;50.154;8.682;2023-02-21T03:10:37;6.43;;;4.13;;
65567;SDS011;52211;50.154;8.682;2023-02-21T03:13:37;5.17;;;4.67;;
65567;SDS011;52211;50.154;8.682;2023-02-21T03:16:16;5.77;;;4.60;;
65567;SDS011;52211;50.154;8.682;2023-02-21T03:19:03;8.57;;;4.87;;
65567;SDS011;52211;50.154;8.682;2023-02-21T03:21:41;6.43;;;4.57;;
65567;SDS011;52211;50.154;8.682;2023-02-21T03:24:17;5.40;;;4.90;;
65567;SDS011;52211;50.154;8.682;2023-02-21T03:26:48;8.97;;;4.73;;
65567;SDS011;52211;50.154;8.682;2023-02-21T03:29:44;7.33;;;4.50;;
65567;SDS011;52211;50.154;8.682;2023-02-21T03:32:23;5.70;;;4.70;;
65567;SDS011;52211;50.154;8.682;2023-02-21T03:35:29;7.00;;;4.90;;
65567;SDS011;52211;50.154;8.682;2023-02-21T03:37:57;7.20;;;4.30;;
65567;SDS011;52211;50.154;8.682;2023-02-21T03:40:27;7.20;;;4.87;;
65567;SDS011;52211;50.154;8.682;2023-02-21T03:42:59;8.20;;;4.60;;
65567;SDS011;52211;50.154;8.682;2023-02-21T03:45:34;7.93;;;5.30;;
65567;SDS011;52211;50.154;8.682;2023-02-21T03:48:10;6.27;;;4.87;;
65567;SDS011;52211;50.154;8.682;2023-02-21T03:50:45;5.47;;;4.93;;
65567;SDS011;52211;50.154;8.682;2023-02-21T03:53:14;6.50;;;4.90;;
65567;SDS011;52211;50.154;8.682;2023-02-21T03:55:43;7.53;;;5.03;;
65567;SDS011;52211;50.154;8.682;2023-02-21T03:58:16;5.77;;;4.67;;
65567;SDS011;52211;50.154;8.682;2023-02-21T04:00:43;5.97;;;4.90;;
65567;SDS011;52211;50.154;8.682;2023-02-21T04:03:15;8.30;;;4.50;;
65567;SDS011;52211;50.154;8.682;2023-02-21T04:05:51;6.67;;;4.63;;
65567;SDS011;52211;50.154;8.682;2023-02-21T04:08:19;6.27;;;4.57;;
65567;SDS011;52211;50.154;8.682;2023-02-21T04:10:46;6.37;;;5.47;;
65567;SDS011;52211;50.154;8.682;2023-02-21T04:13:20;5.67;;;5.00;;
65567;SDS011;52211;50.154;8.682;2023-02-21T04:15:50;8.93;;;5.30;;
65567;SDS011;52211;50.154;8.682;2023-02-21T04:18:22;5.70;;;4.53;;
65567;SDS011;52211;50.154;8.682;2023-02-21T04:20:52;8.60;;;5.33;;
65567;SDS011;52211;50.154;8.682;2023-02-21T04:23:20;6.80;;;4.90;;
65567;SDS011;52211;50.154;8.682;2023-02-21T04:25:48;5.07;;;4.57;;
65567;SDS011;52211;50.154;8.682;2023-02-21T04:28:35;5.87;;;4.60;;
65567;SDS011;52211;50.154;8.682;2023-02-21T04:31:04;7.23;;;4.93;;
65567;SDS011;52211;50.154;8.682;2023-02-21T04:33:34;5.97;;;4.73;;
65567;SDS011;52211;50.154;8.682;2023-02-21T04:36:06;7.87;;;6.13;;
65567;SDS011;52211;50.154;8.682;2023-02-21T04:38:36;5.57;;;5.00;;
65567;SDS011;52211;50.154;8.682;2023-02-21T04:41:03;6.93;;;5.37;;
65567;SDS011;52211;50.154;8.682;2023-02-21T04:43:34;8.17;;;5.00;;
65567;SDS011;52211;50.154;8.682;2023-02-21T04:46:03;6.13;;;5.23;;
65567;SDS011;52211;50.154;8.682;2023-02-21T04:48:31;5.83;;;5.07;;
65567;SDS011;52211;50.154;8.682;2023-02-21T04:50:58;8.20;;;5.47;;
65567;SDS011;52211;50.154;8.682;2023-02-21T04:53:41;7.90;;;5.40;;
65567;SDS011;52211;50.154;8.682;2023-02-21T04:56:14;6.83;;;5.23;;
65567;SDS011;52211;50.154;8.682;2023-02-21T04:58:50;7.40;;;5.43;;
65567;SDS011;52211;50.154;8.682;2023-02-21T05:01:20;9.03;;;5.20;;
65567;SDS011;52211;50.154;8.682;2023-02-21T05:03:48;7.00;;;4.90;;
65567;SDS011;52211;50.154;8.682;2023-02-21T05:06:19;6.13;;;5.27;;
65567;SDS011;52211;50.154;8.682;2023-02-21T05:08:53;8.53;;;5.43;;
65567;SDS011;52211;50.154;8.682;2023-02-21T05:11:21;7.47;;;5.10;;
65567;SDS011;52211;50.154;8.682;2023-02-21T05:13:49;8.87;;;6.10;;
65567;SDS011;52211;50.154;8.682;2023-02-21T05:16:18;8.27;;;5.67;;
65567;SDS011;52211;50.154;8.682;2023-02-21T05:18:46;6.80;;;4.93;;
65567;SDS011;52211;50.154;8.682;2023-02-21T05:21:14;9.50;;;5.43;;
65567;SDS011;52211;50.154;8.682;2023-02-21T05:23:44;12.33;;;6.23;;
65567;SDS011;52211;50.154;8.682;2023-02-21T05:26:25;9.37;;;6.30;;
65567;SDS011;52211;50.154;8.682;2023-02-21T05:28:58;7.30;;;5.43;;
65567;SDS011;52211;50.154;8.682;2023-02-21T05:31:25;6.87;;;5.47;;
65567;SDS011;52211;50.154;8.682;2023-02-21T05:33:52;7.17;;;5.77;;
65567;SDS011;52211;50.154;8.682;2023-02-21T05:36:19;6.87;;;5.30;;
65567;SDS011;52211;50.154;8.682;2023-02-21T05:38:54;8.80;;;4.97;;
65567;SDS011;52211;50.154;8.682;2023-02-21T05:41:24;7.73;;;5.30;;
65567;SDS011;52211;50.154;8.682;2023-02-21T05:43:55;7.40;;;5.37;;
65567;SDS011;52211;50.154;8.682;2023-02-21T05:46:23;9.23;;;6.10;;
65567;SDS011;52211;50.154;8.682;2023-02-21T05:48:57;10.97;;;5.97;;
65567;SDS011;52211;50.154;8.682;2023-02-21T05:51:35;7.07;;;5.63;;
65567;SDS011;52211;50.154;8.682;2023-02-21T05:54:13;9.50;;;5.50;;
65567;SDS011;52211;50.154;8.682;2023-02-21T05:56:49;6.33;;;5.10;;
65567;SDS011;52211;50.154;8.682;2023-02-21T05:59:24;8.00;;;5.73;;
65567;SDS011;52211;50.154;8.682;2023-02-21T06:01:51;5.53;;;5.03;;
65567;SDS011;52211;50.154;8.682;2023-02-21T06:04:18;8.23;;;6.53;;
65567;SDS011;52211;50.154;8.682;2023-02-21T06:06:45;12.53;;;6.43;;
65567;SDS011;52211;50.154;8.682;2023-02-21T06:09:12;9.43;;;6.13;;
65567;SDS011;52211;50.154;8.682;2023-02-21T06:11:41;8.63;;;5.67;;
65567;SDS011;52211;50.154;8.682;2023-02-21T06:14:14;10.07;;;6.10;;
65567;SDS011;52211;50.154;8.682;2023-02-21T06:16:46;6.87;;;5.77;;
65567;SDS011;52211;50.154;8.682;2023-02-21T06:19:17;9.70;;;5.87;;
65567;SDS011;52211;50.154;8.682;2023-02-21T06:21:50;7.60;;;6.13;;
65567;SDS011;52211;50.154;8.682;2023-02-21T06:24:21;7.87;;;6.07;;
65567;SDS011;52211;50.154;8.682;2023-02-21T06:26:51;7.90;;;6.40;;
65567;SDS011;52211;50.154;8.682;2023-02-21T06:29:20;7.43;;;5.97;;
65567;SDS011;52211;50.154;8.682;2023-02-21T06:31:47;8.13;;;5.83;;
65567;SDS011;52211;50.154;8.682;2023-02-21T06:34:21;11.10;;;7.20;;
65567;SDS011;52211;50.154;8.682;2023-02-21T06:36:51;9.50;;;6.90;;
65567;SDS011;52211;50.154;8.682;2023-02-21T06:39:22;7.47;;;6.37;;
65567;SDS011;52211;50.154;8.682;2023-02-21T06:41:52;8.17;;;5.87;;
65567;SDS011;52211;50.154;8.682;2023-02-21T06:44:19;8.13;;;6.37;;
65567;SDS011;52211;50.154;8.682;2023-02-21T06:46:48;11.47;;;7.03;;
65567;SDS011;52211;50.154;8.682;2023-02-21T06:49:20;8.43;;;6.53;;
65567;SDS011;52211;50.154;8.682;2023-02-21T06:51:49;7.83;;;6.37;;
65567;SDS011;52211;50.154;8.682;2023-02-21T06:54:23;7.13;;;6.33;;
65567;SDS011;52211;50.154;8.682;2023-02-21T06:56:50;7.60;;;6.20;;
65567;SDS011;52211;50.154;8.682;2023-02-21T07:02:15;9.10;;;6.53;;
65567;SDS011;52211;50.154;8.682;2023-02-21T07:04:45;9.83;;;6.93;;
65567;SDS011;52211;50.154;8.682;2023-02-21T07:07:15;10.97;;;6.83;;
65567;SDS011;52211;50.154;8.682;2023-02-21T07:09:47;9.03;;;6.70;;
65567;SDS011;52211;50.154;8.682;2023-02-21T07:12:14;11.23;;;6.80;;
65567;SDS011;52211;50.154;8.682;2023-02-21T07:14:47;9.97;;;7.40;;
65567;SDS011;52211;50.154;8.682;2023-02-21T07:17:14;10.03;;;7.07;;
65567;SDS011;52211;50.154;8.682;2023-02-21T07:19:46;8.70;;;6.60;;
65567;SDS011;52211;50.154;8.682;2023-02-21T07:22:17;10.30;;;7.03;;
65567;SDS011;52211;50.154;8.682;2023-02-21T07:24:54;11.40;;;6.93;;
65567;SDS011;52211;50.154;8.682;2023-02-21T07:27:22;8.70;;;6.90;;
65567;SDS011;52211;50.154;8.682;2023-02-21T07:29:51;11.23;;;6.60;;
65567;SDS011;52211;50.154;8.682;2023-02-21T07:32:23;10.80;;;7.53;;
65567;SDS011;52211;50.154;8.682;2023-02-21T07:34:52;13.63;;;7.27;;
65567;SDS011;52211;50.154;8.682;2023-02-21T07:37:19;7.70;;;6.63;;
65567;SDS011;52211;50.154;8.682;2023-02-21T07:39:48;12.57;;;7.73;;
65567;SDS011;52211;50.154;8.682;2023-02-21T07:42:20;8.73;;;6.83;;
65567;SDS011;52211;50.154;8.682;2023-02-21T07:44:56;10.83;;;6.97;;
65567;SDS011;52211;50.154;8.682;2023-02-21T07:47:24;10.33;;;7.40;;
65567;SDS011;52211;50.154;8.682;2023-02-21T07:49:53;9.67;;;7.40;;
65567;SDS011;52211;50.154;8.682;2023-02-21T07:52:22;12.77;;;7.90;;
65567;SDS011;52211;50.154;8.682;2023-02-21T07:54:51;13.07;;;7.77;;
65567;SDS011;52211;50.154;8.682;2023-02-21T07:57:23;11.07;;;7.10;;
65567;SDS011;52211;50.154;8.682;2023-02-21T07:59:50;11.13;;;6.80;;
65567;SDS011;52211;50.154;8.682;2023-02-21T08:02:17;13.20;;;7.40;;
65567;SDS011;52211;50.154;8.682;2023-02-21T08:04:44;10.27;;;7.13;;
65567;SDS011;52211;50.154;8.682;2023-02-21T08:07:15;10.80;;;8.50;;
65567;SDS011;52211;50.154;8.682;2023-02-21T08:09:44;12.47;;;8.00;;
65567;SDS011;52211;50.154;8.682;2023-02-21T08:12:16;10.83;;;7.77;;
65567;SDS011;52211;50.154;8.682;2023-02-21T08:14:45;11.00;;;7.77;;
65567;SDS011;52211;50.154;8.682;2023-02-21T08:17:12;10.23;;;7.77;;
65567;SDS011;52211;50.154;8.682;2023-02-21T08:19:39;11.07;;;8.13;;
65567;SDS011;52211;50.154;8.682;2023-02-21T08:22:06;11.53;;;7.27;;
65567;SDS011;52211;50.154;8.682;2023-02-21T08:24:37;12.27;;;7.47;;
65567;SDS011;52211;50.154;8.682;2023-02-21T08:27:06;14.27;;;7.97;;
65567;SDS011;52211;50.154;8.682;2023-02-21T08:29:33;12.80;;;8.73;;
65567;SDS011;52211;50.154;8.682;2023-02-21T08:32:01;11.50;;;7.93;;
65567;SDS011;52211;50.154;8.682;2023-02-21T08:34:30;8.87;;;7.70;;
65567;SDS011;52211;50.154;8.682;2023-02-21T08:37:08;15.90;;;8.70;;
65567;SDS011;52211;50.154;8.682;2023-02-21T08:39:48;10.03;;;8.17;;
65567;SDS011;52211;50.154;8.682;2023-02-21T08:42:18;13.23;;;8.33;;
65567;SDS011;52211;50.154;8.682;2023-02-21T08:44:50;13.13;;;7.27;;
65567;SDS011;52211;50.154;8.682;2023-02-21T08:47:19;9.17;;;7.20;;
65567;SDS011;52211;50.154;8.682;2023-02-21T08:49:48;13.10;;;7.70;;
65567;SDS011;52211;50.154;8.682;2023-02-21T08:52:21;12.27;;;7.07;;
65567;SDS011;52211;50.154;8.682;2023-02-21T08:54:47;16.47;;;8.50;;
65567;SDS011;52211;50.154;8.682;2023-02-21T08:57:14;11.10;;;7.80;;
65567;SDS011;52211;50.154;8.682;2023-02-21T08:59:42;9.77;;;7.83;;
65567;SDS011;52211;50.154;8.682;2023-02-21T09:02:22;10.73;;;8.00;;
65567;SDS011;52211;50.154;8.682;2023-02-21T09:04:51;9.80;;;7.10;;
65567;SDS011;52211;50.154;8.682;2023-02-21T09:07:21;12.60;;;7.70;;
65567;SDS011;52211;50.154;8.682;2023-02-21T09:09:48;11.63;;;8.40;;
65567;SDS011;52211;50.154;8.682;2023-02-21T09:12:17;12.73;;;8.27;;
65567;SDS011;52211;50.154;8.682;2023-02-21T09:14:49;10.70;;;7.57;;
65567;SDS011;52211;50.154;8.682;2023-02-21T09:17:21;11.17;;;8.00;;
65567;SDS011;52211;50.154;8.682;2023-02-21T09:19:50;10.73;;;8.43;;
65567;SDS011;52211;50.154;8.682;2023-02-21T09:22:19;13.73;;;8.23;;
65567;SDS011;52211;50.154;8.682;2023-02-21T09:24:46;15.23;;;9.43;;
65567;SDS011;52211;50.154;8.682;2023-02-21T09:27:18;12.67;;;8.20;;
65567;SDS011;52211;50.154;8.682;2023-02-21T09:30:05;12.67;;;8.23;;
65567;SDS011;52211;50.154;8.682;2023-02-21T09:32:51;13.33;;;8.43;;
65567;SDS011;52211;50.154;8.682;2023-02-21T09:35:23;10.00;;;7.57;;
65567;SDS011;52211;50.154;8.682;2023-02-21T09:37:52;13.10;;;7.80;;
65567;SDS011;52211;50.154;8.682;2023-02-21T09:43:04;11.03;;;8.47;;
65567;SDS011;52211;50.154;8.682;2023-02-21T09:45:42;9.30;;;7.67;;
65567;SDS011;52211;50.154;8.682;2023-02-21T09:48:17;10.07;;;7.90;;
65567;SDS011;52211;50.154;8.682;2023-02-21T09:50:49;14.27;;;8.10;;
65567;SDS011;52211;50.154;8.682;2023-02-21T09:53:23;13.23;;;8.03;;
65567;SDS011;52211;50.154;8.682;2023-02-21T09:56:01;12.80;;;8.33;;
65567;SDS011;52211;50.154;8.682;2023-02-21T09:58:40;12.43;;;9.00;;
65567;SDS011;52211;50.154;8.682;2023-02-21T10:01:14;10.70;;;7.60;;
65567;SDS011;52211;50.154;8.682;2023-02-21T10:06:54;9.17;;;7.57;;
65567;SDS011;52211;50.154;8.682;2023-02-21T10:12:15;10.53;;;7.00;;
65567;SDS011;52211;50.154;8.682;2023-02-21T10:15:19;13.53;;;8.37;;
65567;SDS011;52211;50.154;8.682;2023-02-21T10:21:18;10.37;;;7.80;;
65567;SDS011;52211;50.154;8.682;2023-02-21T10:23:52;10.80;;;8.00;;
65567;SDS011;52211;50.154;8.682;2023-02-21T10:26:28;9.30;;;6.77;;
65567;SDS011;52211;50.154;8.682;2023-02-21T10:29:03;10.03;;;6.87;;
65567;SDS011;52211;50.154;8.682;2023-02-21T10:31:56;10.40;;;6.77;;
65567;SDS011;52211;50.154;8.682;2023-02-21T10:34:32;11.30;;;7.20;;
65567;SDS011;52211;50.154;8.682;2023-02-21T10:37:02;10.10;;;7.77;;
65567;SDS011;52211;50.154;8.682;2023-02-21T10:39:48;9.77;;;6.77;;
65567;SDS011;52211;50.154;8.682;2023-02-21T10:42:28;9.00;;;7.17;;
65567;SDS011;52211;50.154;8.682;2023-02-21T10:45:04;12.53;;;6.97;;
65567;SDS011;52211;50.154;8.682;2023-02-21T10:47:48;10.07;;;7.53;;
65567;SDS011;52211;50.154;8.682;2023-02-21T10:50:42;10.33;;;6.60;;
65567;SDS011;52211;50.154;8.682;2023-02-21T10:53:31;11.17;;;6.70;;
65567;SDS011;52211;50.154;8.682;2023-02-21T10:59:03;10.53;;;6.97;;
65567;SDS011;52211;50.154;8.682;2023-02-21T11:06:46;8.47;;;6.73;;
65567;SDS011;52211;50.154;8.682;2023-02-21T11:19:55;8.37;;;6.30;;
65567;SDS011;52211;50.154;8.682;2023-02-21T11:22:38;7.00;;;5.40;;
65567;SDS011;52211;50.154;8.682;2023-02-21T11:30:48;9.00;;;5.87;;
65567;SDS011;52211;50.154;8.682;2023-02-21T11:33:28;6.23;;;5.00;;
65567;SDS011;52211;50.154;8.682;2023-02-21T11:38:43;6.87;;;5.77;;
65567;SDS011;52211;50.154;8.682;2023-02-21T11:41:34;6.67;;;4.73;;
65567;SDS011;52211;50.154;8.682;2023-02-21T11:44:20;6.30;;;4.70;;
65567;SDS011;52211;50.154;8.682;2023-02-21T11:47:06;6.17;;;4.33;;
65567;SDS011;52211;50.154;8.682;2023-02-21T11:55:13;4.63;;;3.90;;
65567;SDS011;52211;50.154;8.682;2023-02-21T12:03:50;4.20;;;3.80;;
65567;SDS011;52211;50.154;8.682;2023-02-21T12:06:27;6.13;;;4.30;;
65567;SDS011;52211;50.154;8.682;2023-02-21T12:09:06;5.93;;;4.33;;
65567;SDS011;52211;50.154;8.682;2023-02-21T12:11:57;4.87;;;3.90;;
65567;SDS011;52211;50.154;8.682;2023-02-21T12:20:39;4.00;;;3.70;;
65567;SDS011;52211;50.154;8.682;2023-02-21T12:29:16;4.23;;;3.63;;
65567;SDS011;52211;50.154;8.682;2023-02-21T12:38:09;6.97;;;4.27;;
65567;SDS011;52211;50.154;8.682;2023-02-21T12:44:16;4.70;;;3.57;;
65567;SDS011;52211;50.154;8.682;2023-02-21T12:46:56;5.20;;;4.00;;
65567;SDS011;52211;50.154;8.682;2023-02-21T12:49:39;5.00;;;3.30;;
65567;SDS011;52211;50.154;8.682;2023-02-21T12:52:33;6.40;;;3.83;;
65567;SDS011;52211;50.154;8.682;2023-02-21T12:55:47;4.20;;;3.80;;
65567;SDS011;52211;50.154;8.682;2023-02-21T12:58:27;4.10;;;3.53;;
65567;SDS011;52211;50.154;8.682;2023-02-21T13:01:04;4.57;;;3.20;;
65567;SDS011;52211;50.154;8.682;2023-02-21T13:06:37;4.40;;;3.57;;
65567;SDS011;52211;50.154;8.682;2023-02-21T13:09:46;3.97;;;3.40;;
65567;SDS011;52211;50.154;8.682;2023-02-21T13:12:29;5.73;;;3.40;;
65567;SDS011;52211;50.154;8.682;2023-02-21T13:17:50;3.63;;;3.20;;
65567;SDS011;52211;50.154;8.682;2023-02-21T13:20:33;3.50;;;2.70;;
65567;SDS011;52211;50.154;8.682;2023-02-21T13:33:03;5.00;;;3.27;;
65567;SDS011;52211;50.154;8.682;2023-02-21T13:38:05;3.20;;;2.90;;
65567;SDS011;52211;50.154;8.682;2023-02-21T13:40:53;3.30;;;3.00;;
65567;SDS011;52211;50.154;8.682;2023-02-21T13:43:49;3.33;;;3.03;;
65567;SDS011;52211;50.154;8.682;2023-02-21T13:57:38;3.20;;;2.90;;
65567;SDS011;52211;50.154;8.682;2023-02-21T14:05:23;3.40;;;3.10;;
65567;SDS011;52211;50.154;8.682;2023-02-21T14:08:19;5.40;;;3.27;;
65567;SDS011;52211;50.154;8.682;2023-02-21T14:10:52;4.03;;;3.60;;
65567;SDS011;52211;50.154;8.682;2023-02-21T14:13:31;3.77;;;3.27;;
65567;SDS011;52211;50.154;8.682;2023-02-21T14:16:21;3.53;;;2.97;;
65567;SDS011;52211;50.154;8.682;2023-02-21T14:18:57;3.67;;;3.07;;
65567;SDS011;52211;50.154;8.682;2023-02-21T14:21:41;3.47;;;3.07;;
65567;SDS011;52211;50.154;8.682;2023-02-21T14:24:35;3.53;;;2.87;;
65567;SDS011;52211;50.154;8.682;2023-02-21T14:32:33;3.00;;;2.40;;
65567;SDS011;52211;50.154;8.682;2023-02-21T14:38:14;3.57;;;3.00;;
65567;SDS011;52211;50.154;8.682;2023-02-21T15:07:52;3.70;;;2.90;;
65567;SDS011;52211;50.154;8.682;2023-02-21T15:10:39;5.13;;;3.10;;
65567;SDS011;52211;50.154;8.682;2023-02-21T15:16:11;3.23;;;2.93;;
65567;SDS011;52211;50.154;8.682;2023-02-21T15:18:41;3.13;;;2.83;;
65567;SDS011;52211;50.154;8.682;2023-02-21T15:21:26;3.27;;;2.97;;
65567;SDS011;52211;50.154;8.682;2023-02-21T15:24:10;3.73;;;2.83;;
65567;SDS011;52211;50.154;8.682;2023-02-21T15:26:45;3.40;;;2.90;;
65567;SDS011;52211;50.154;8.682;2023-02-21T15:29:17;3.23;;;2.83;;
65567;SDS011;52211;50.154;8.682;2023-02-21T15:31:47;5.60;;;2.70;;
65567;SDS011;52211;50.154;8.682;2023-02-21T15:34:29;3.73;;;2.97;;
65567;SDS011;52211;50.154;8.682;2023-02-21T15:37:20;3.80;;;3.10;;
65567;SDS011;52211;50.154;8.682;2023-02-21T15:39:53;3.47;;;3.17;;
65567;SDS011;52211;50.154;8.682;2023-02-21T15:42:31;5.30;;;4.50;;
65567;SDS011;52211;50.154;8.682;2023-02-21T15:45:01;4.97;;;3.63;;
65567;SDS011;52211;50.154;8.682;2023-02-21T15:47:46;4.30;;;3.60;;
65567;SDS011;52211;50.154;8.682;2023-02-21T15:50:34;4.00;;;3.57;;
65567;SDS011;52211;50.154;8.682;2023-02-21T15:55:51;4.07;;;3.67;;
65567;SDS011;52211;50.154;8.682;2023-02-21T15:58:22;4.97;;;4.20;;
65567;SDS011;52211;50.154;8.682;2023-02-21T16:01:07;4.00;;;3.53;;
65567;SDS011;52211;50.154;8.682;2023-02-21T16:03:41;6.60;;;3.73;;
65567;SDS011;52211;50.154;8.682;2023-02-21T16:06:26;4.70;;;4.17;;
65567;SDS011;52211;50.154;8.682;2023-02-21T16:11:37;5.97;;;3.87;;
65567;SDS011;52211;50.154;8.682;2023-02-21T16:19:54;5.70;;;4.20;;
65567;SDS011;52211;50.154;8.682;2023-02-21T16:22:39;6.57;;;4.13;;
65567;SDS011;52211;50.154;8.682;2023-02-21T16:25:35;5.53;;;4.30;;
65567;SDS011;52211;50.154;8.682;2023-02-21T16:28:27;5.33;;;4.20;;
65567;SDS011;52211;50.154;8.682;2023-02-21T16:30:57;5.17;;;3.83;;
65567;SDS011;52211;50.154;8.682;2023-02-21T16:33:31;5.23;;;4.27;;
65567;SDS011;52211;50.154;8.682;2023-02-21T16:36:03;4.70;;;3.43;;
65567;SDS011;52211;50.154;8.682;2023-02-21T16:38:34;4.97;;;3.83;;
65567;SDS011;52211;50.154;8.682;2023-02-21T16:41:10;7.03;;;4.47;;
65567;SDS011;52211;50.154;8.682;2023-02-21T16:43:44;5.87;;;3.93;;
65567;SDS011;52211;50.154;8.682;2023-02-21T16:46:14;5.07;;;4.23;;
65567;SDS011;52211;50.154;8.682;2023-02-21T16:48:55;6.17;;;4.70;;
65567;SDS011;52211;50.154;8.682;2023-02-21T16:51:25;5.17;;;4.67;;
65567;SDS011;52211;50.154;8.682;2023-02-21T16:54:01;6.70;;;5.40;;
65567;SDS011;52211;50.154;8.682;2023-02-21T16:56:31;5.63;;;4.70;;
65567;SDS011;52211;50.154;8.682;2023-02-21T16:58:58;5.60;;;4.43;;
65567;SDS011;52211;50.154;8.682;2023-02-21T17:01:29;8.30;;;4.87;;
65567;SDS011;52211;50.154;8.682;2023-02-21T17:03:59;5.30;;;4.60;;
65567;SDS011;52211;50.154;8.682;2023-02-21T17:06:28;5.20;;;4.70;;
65567;SDS011;52211;50.154;8.682;2023-02-21T17:08:59;5.47;;;4.77;;
65567;SDS011;52211;50.154;8.682;2023-02-21T17:11:35;6.17;;;5.07;;
65567;SDS011;52211;50.154;8.682;2023-02-21T17:14:02;6.50;;;4.53;;
65567;SDS011;52211;50.154;8.682;2023-02-21T17:16:29;7.03;;;4.60;;
65567;SDS011;52211;50.154;8.682;2023-02-21T17:18:56;5.87;;;5.27;;
65567;SDS011;52211;50.154;8.682;2023-02-21T17:21:23;6.30;;;4.80;;
65567;SDS011;52211;50.154;8.682;2023-02-21T17:23:49;7.57;;;4.90;;
65567;SDS011;52211;50.154;8.682;2023-02-21T17:26:16;9.00;;;4.50;;
65567;SDS011;52211;50.154;8.682;2023-02-21T17:28:43;6.60;;;5.10;;
65567;SDS011;52211;50.154;8.682;2023-02-21T17:31:15;7.00;;;5.17;;
65567;SDS011;52211;50.154;8.682;2023-02-21T17:33:48;6.93;;;5.07;;
65567;SDS011;52211;50.154;8.682;2023-02-21T17:36:21;7.40;;;5.13;;
65567;SDS011;52211;50.154;8.682;2023-02-21T17:38:51;7.80;;;5.10;;
65567;SDS011;52211;50.154;8.682;2023-02-21T17:41:26;6.37;;;5.30;;
65567;SDS011;52211;50.154;8.682;2023-02-21T17:43:58;7.37;;;5.43;;
65567;SDS011;52211;50.154;8.682;2023-02-21T17:46:27;8.53;;;5.97;;
65567;SDS011;52211;50.154;8.682;2023-02-21T17:48:54;9.50;;;6.03;;
65567;SDS011;52211;50.154;8.682;2023-02-21T17:51:25;8.13;;;5.80;;
65567;SDS011;52211;50.154;8.682;2023-02-21T17:53:52;7.70;;;5.50;;
65567;SDS011;52211;50.154;8.682;2023-02-21T17:56:23;9.33;;;5.70;;
65567;SDS011;52211;50.154;8.682;2023-02-21T17:58:54;6.73;;;5.73;;
65567;SDS011;52211;50.154;8.682;2023-02-21T18:01:24;10.23;;;5.90;;
65567;SDS011;52211;50.154;8.682;2023-02-21T18:03:53;8.13;;;6.17;;
65567;SDS011;52211;50.154;8.682;2023-02-21T18:06:22;7.33;;;6.17;;
65567;SDS011;52211;50.154;8.682;2023-02-21T18:08:54;8.73;;;6.30;;
65567;SDS011;52211;50.154;8.682;2023-02-21T18:11:24;9.83;;;7.77;;
65567;SDS011;52211;50.154;8.682;2023-02-21T18:13:52;9.90;;;6.90;;
65567;SDS011;52211;50.154;8.682;2023-02-21T18:16:21;10.67;;;7.20;;
65567;SDS011;52211;50.154;8.682;2023-02-21T18:18:48;9.43;;;6.97;;
65567;SDS011;52211;50.154;8.682;2023-02-21T18:21:20;10.27;;;7.40;;
65567;SDS011;52211;50.154;8.682;2023-02-21T18:23:55;8.50;;;6.60;;
65567;SDS011;52211;50.154;8.682;2023-02-21T18:26:24;7.93;;;6.27;;
65567;SDS011;52211;50.154;8.682;2023-02-21T18:28:51;9.07;;;6.57;;
65567;SDS011;52211;50.154;8.682;2023-02-21T18:31:18;13.10;;;7.67;;
65567;SDS011;52211;50.154;8.682;2023-02-21T18:33:47;9.60;;;6.60;;
65567;SDS011;52211;50.154;8.682;2023-02-21T18:36:16;11.37;;;6.53;;
65567;SDS011;52211;50.154;8.682;2023-02-21T18:38:45;11.20;;;7.33;;
65567;SDS011;52211;50.154;8.682;2023-02-21T18:41:16;9.30;;;6.47;;
65567;SDS011;52211;50.154;8.682;2023-02-21T18:43:51;8.60;;;6.83;;
65567;SDS011;52211;50.154;8.682;2023-02-21T18:46:20;8.80;;;6.70;;
65567;SDS011;52211;50.154;8.682;2023-02-21T18:48:51;10.30;;;7.13;;
65567;SDS011;52211;50.154;8.682;2023-02-21T18:51:21;9.10;;;6.60;;